Time;durP1;ratioP1;P1;durP2;ratioP2;P2;SDS_P1;SDS_P2;PMS_P1;PMS_P2;Temp;Humidity;BMP_temperature;BMP_pressure;BME280_temperature;BME280_humidity;BME280_pressure;Samples;Min_cycle;Max_cycle;Signal;HPM_P1;HPM_P2
2024/02/06 00:00:33;;;;;;;6.10;2.28;;;;;;;7.04;nan;96134.38;2064920;28;20482;-63
2024/02/06 00:01:34;;;;;;;10.88;2.83;;;;;;;6.99;nan;96125.06;2066411;28;20398;-64
2024/02/06 00:02:35;;;;;;;10.77;2.47;;;;;;;6.99;nan;96135.41;2066096;28;20038;-63
2024/02/06 00:03:36;;;;;;;8.90;2.67;;;;;;;7.00;nan;96126.75;2066291;28;20049;-63
2024/02/06 00:04:37;;;;;;;11.35;3.15;;;;;;;6.95;nan;96129.50;2066216;28;20057;-64
2024/02/06 00:05:38;;;;;;;9.15;3.10;;;;;;;6.93;nan;96131.28;2065867;28;20050;-64
2024/02/06 00:06:39;;;;;;;8.60;2.72;;;;;;;6.92;nan;96134.72;2066142;28;20407;-63
2024/02/06 00:07:40;;;;;;;7.13;2.75;;;;;;;6.92;nan;96126.97;2065987;28;20118;-63
2024/02/06 00:08:41;;;;;;;9.57;3.20;;;;;;;6.94;nan;96112.28;2065550;28;20050;-63
2024/02/06 00:09:43;;;;;;;8.15;2.40;;;;;;;6.96;nan;96120.00;2065972;28;20050;-63
2024/02/06 00:10:44;;;;;;;8.10;3.05;;;;;;;6.94;nan;96124.38;2066012;28;20069;-63
2024/02/06 00:11:45;;;;;;;7.13;2.13;;;;;;;6.98;nan;96126.81;2065906;28;20050;-63
2024/02/06 00:12:46;;;;;;;7.93;2.05;;;;;;;6.95;nan;96120.88;2065451;28;20479;-63
2024/02/06 00:13:47;;;;;;;6.22;1.98;;;;;;;6.95;nan;96126.03;2066025;28;20057;-63
2024/02/06 00:14:48;;;;;;;10.55;3.00;;;;;;;6.98;nan;96120.81;2066098;28;20487;-64
2024/02/06 00:15:49;;;;;;;13.35;2.60;;;;;;;7.01;nan;96116.38;2065801;28;20038;-63
2024/02/06 00:16:51;;;;;;;6.93;2.13;;;;;;;7.03;nan;96114.59;2065426;28;20054;-63
2024/02/06 00:17:52;;;;;;;9.43;2.90;;;;;;;7.11;nan;96114.38;2065713;28;20537;-63
2024/02/06 00:18:53;;;;;;;6.85;2.28;;;;;;;7.10;nan;96110.09;2057484;28;20045;-63
2024/02/06 00:19:54;;;;;;;6.18;2.38;;;;;;;7.06;nan;96108.50;2057437;28;20046;-63
2024/02/06 00:20:55;;;;;;;7.53;2.33;;;;;;;7.05;nan;96115.38;2065122;28;20487;-63
2024/02/06 00:21:56;;;;;;;10.80;2.22;;;;;;;7.06;nan;96109.34;2065651;28;20042;-64
2024/02/06 00:22:57;;;;;;;8.73;2.63;;;;;;;7.03;nan;96111.16;2065708;28;20432;-63
2024/02/06 00:23:59;;;;;;;7.63;3.28;;;;;;;7.03;nan;96103.41;2065290;28;20053;-64
2024/02/06 00:25:00;;;;;;;5.13;1.80;;;;;;;7.13;nan;96107.41;2064981;28;20049;-63
2024/02/06 00:26:01;;;;;;;10.07;3.17;;;;;;;7.13;nan;96107.41;2064972;28;20061;-63
2024/02/06 00:27:02;;;;;;;7.57;2.30;;;;;;;7.12;nan;96099.72;2066032;28;20606;-63
2024/02/06 00:28:04;;;;;;;5.78;2.00;;;;;;;7.13;nan;96107.41;2065854;28;20045;-63
2024/02/06 00:29:05;;;;;;;8.35;3.15;;;;;;;7.24;nan;96101.88;2065302;28;20053;-63
2024/02/06 00:30:06;;;;;;;9.07;2.97;;;;;;;7.31;nan;96099.97;2066156;28;20045;-63
2024/02/06 00:31:08;;;;;;;7.40;2.38;;;;;;;7.39;nan;96096.22;2065368;28;20050;-63
2024/02/06 00:32:09;;;;;;;10.57;3.33;;;;;;;7.36;nan;96106.66;2065893;28;20042;-63
2024/02/06 00:33:10;;;;;;;17.75;4.03;;;;;;;7.25;nan;96101.00;2065623;28;20065;-63
2024/02/06 00:34:11;;;;;;;10.68;3.13;;;;;;;7.12;nan;96095.38;2065935;28;20046;-63
2024/02/06 00:35:12;;;;;;;10.32;2.80;;;;;;;7.08;nan;96096.38;2066148;28;20054;-63
2024/02/06 00:36:13;;;;;;;10.07;3.15;;;;;;;7.05;nan;96096.47;2065867;28;20052;-63
2024/02/06 00:37:18;;;;;;;11.48;3.50;;;;;;;7.15;nan;96097.88;2065792;28;20049;-63
2024/02/06 00:38:19;;;;;;;8.40;2.92;;;;;;;7.27;nan;96091.44;2065811;28;20042;-63
2024/02/06 00:39:20;;;;;;;8.80;2.83;;;;;;;7.39;nan;96092.81;2065859;28;20042;-62
2024/02/06 00:40:21;;;;;;;7.85;2.55;;;;;;;7.40;nan;96090.16;2065600;28;20497;-62
2024/02/06 00:41:22;;;;;;;7.65;2.70;;;;;;;7.40;nan;96097.91;2066063;28;20034;-63
2024/02/06 00:42:23;;;;;;;7.57;2.80;;;;;;;7.37;nan;96100.59;2065705;28;20487;-63
2024/02/06 00:43:25;;;;;;;6.72;2.33;;;;;;;7.31;nan;96093.06;2065843;28;20045;-64
2024/02/06 00:44:26;;;;;;;6.75;2.13;;;;;;;7.33;nan;96098.19;2065594;28;20390;-63
2024/02/06 00:45:27;;;;;;;9.43;3.28;;;;;;;7.33;nan;96099.03;2065913;28;20042;-64
2024/02/06 00:46:28;;;;;;;11.85;3.45;;;;;;;7.37;nan;96094.59;2064712;28;20053;-63
2024/02/06 00:47:29;;;;;;;6.40;1.95;;;;;;;7.35;nan;96101.53;2064698;28;20479;-64
2024/02/06 00:48:30;;;;;;;9.77;3.53;;;;;;;7.39;nan;96097.97;2065520;28;20083;-63
2024/02/06 00:49:31;;;;;;;11.02;3.33;;;;;;;7.38;nan;96093.72;2065854;28;20399;-65
2024/02/06 00:50:32;;;;;;;7.50;2.22;;;;;;;7.37;nan;96087.69;2065825;28;20049;-65
2024/02/06 00:51:33;;;;;;;7.47;2.30;;;;;;;7.35;nan;96093.78;2065109;28;20057;-65
2024/02/06 00:52:35;;;;;;;11.00;3.00;;;;;;;7.24;nan;96089.84;2065791;28;20410;-65
2024/02/06 00:53:36;;;;;;;8.43;2.60;;;;;;;7.23;nan;96098.47;2065083;28;20486;-65
2024/02/06 00:54:37;;;;;;;12.18;2.85;;;;;;;7.17;nan;96092.66;2065209;28;20038;-65
2024/02/06 00:55:38;;;;;;;7.40;2.15;;;;;;;7.15;nan;96090.13;2065408;28;20407;-65
2024/02/06 00:56:40;;;;;;;6.90;2.03;;;;;;;7.11;nan;96098.00;2065823;28;20022;-65
2024/02/06 00:57:41;;;;;;;9.77;1.65;;;;;;;7.12;nan;96089.38;2065676;28;20037;-65
2024/02/06 00:58:42;;;;;;;9.40;2.78;;;;;;;7.17;nan;96087.50;2065813;28;20367;-65
2024/02/06 00:59:43;;;;;;;7.55;2.92;;;;;;;7.14;nan;96098.78;2065163;28;20046;-65
2024/02/06 01:00:44;;;;;;;8.65;2.70;;;;;;;7.04;nan;96090.47;2064771;28;20061;-65
2024/02/06 01:01:47;;;;;;;8.75;2.85;;;;;;;7.04;nan;96089.63;2065341;28;20057;-64
2024/02/06 01:02:48;;;;;;;7.30;2.50;;;;;;;7.12;nan;96087.66;2065113;28;20050;-65
2024/02/06 01:03:49;;;;;;;9.65;2.38;;;;;;;7.14;nan;96092.78;2056506;28;20050;-65
2024/02/06 01:04:51;;;;;;;7.85;2.63;;;;;;;7.20;nan;96083.06;2057156;28;20038;-64
2024/02/06 01:05:52;;;;;;;8.27;2.58;;;;;;;7.22;nan;96089.03;2065791;28;20042;-64
2024/02/06 01:06:53;;;;;;;4.82;2.13;;;;;;;7.20;nan;96090.81;2064998;28;20446;-65
2024/02/06 01:07:54;;;;;;;11.18;3.13;;;;;;;7.17;nan;96090.94;2065331;28;20042;-64
2024/02/06 01:08:55;;;;;;;14.00;2.50;;;;;;;7.20;nan;96093.41;2065409;28;20042;-65
2024/02/06 01:09:56;;;;;;;6.28;2.65;;;;;;;7.19;nan;96083.09;2065628;28;20049;-64
2024/02/06 01:10:57;;;;;;;7.75;2.70;;;;;;;7.14;nan;96093.59;2065090;28;20057;-65
2024/02/06 01:11:59;;;;;;;11.50;2.85;;;;;;;7.10;nan;96091.16;2065675;28;20042;-65
2024/02/06 01:13:00;;;;;;;9.63;3.08;;;;;;;7.01;nan;96087.16;2064728;28;20053;-65
2024/02/06 01:14:01;;;;;;;7.57;2.03;;;;;;;6.97;nan;96093.28;2068480;28;20046;-65
2024/02/06 01:15:02;;;;;;;9.55;3.08;;;;;;;6.95;nan;96087.31;2065866;28;20037;-65
2024/02/06 01:16:04;;;;;;;11.88;2.88;;;;;;;7.01;nan;96102.63;2065066;28;20050;-65
2024/02/06 01:17:05;;;;;;;9.23;2.78;;;;;;;7.00;nan;96096.63;2064644;28;20050;-65
2024/02/06 01:18:06;;;;;;;6.03;2.60;;;;;;;6.98;nan;96100.16;2065591;28;20426;-63
2024/02/06 01:19:08;;;;;;;13.30;3.50;;;;;;;6.92;nan;96102.91;2065518;28;20049;-64
2024/02/06 01:20:09;;;;;;;9.88;2.67;;;;;;;6.87;nan;96094.47;2065156;28;20046;-65
2024/02/06 01:21:10;;;;;;;8.23;1.85;;;;;;;6.83;nan;96102.31;2065584;28;20068;-65
2024/02/06 01:22:11;;;;;;;8.40;2.42;;;;;;;6.84;nan;96097.97;2064930;28;20057;-65
2024/02/06 01:23:12;;;;;;;10.70;2.83;;;;;;;6.95;nan;96092.47;2065682;28;20042;-65
2024/02/06 01:24:13;;;;;;;6.05;2.28;;;;;;;6.92;nan;96083.09;2065689;28;20522;-65
2024/02/06 01:25:14;;;;;;;7.88;2.42;;;;;;;6.95;nan;96103.69;2064963;28;20054;-64
2024/02/06 01:26:15;;;;;;;5.22;1.90;;;;;;;6.90;nan;96099.56;2065666;28;20038;-64
2024/02/06 01:27:17;;;;;;;6.32;2.40;;;;;;;6.85;nan;96092.78;2065636;28;20402;-64
2024/02/06 01:28:18;;;;;;;7.13;3.10;;;;;;;6.85;nan;96090.19;2065544;28;20038;-65
2024/02/06 01:29:19;;;;;;;8.80;2.55;;;;;;;6.96;nan;96084.69;2065589;28;20050;-64
2024/02/06 01:30:20;;;;;;;9.18;2.50;;;;;;;6.97;nan;96081.22;2065586;28;20030;-64
2024/02/06 01:31:21;;;;;;;5.25;1.48;;;;;;;6.95;nan;96087.31;2065843;28;20371;-65
2024/02/06 01:32:22;;;;;;;13.30;2.60;;;;;;;7.00;nan;96088.03;2065570;28;20038;-64
2024/02/06 01:33:23;;;;;;;4.93;1.70;;;;;;;7.01;nan;96087.16;2065134;28;20073;-64
2024/02/06 01:34:24;;;;;;;7.97;3.10;;;;;;;7.01;nan;96084.56;2065019;28;20055;-64
2024/02/06 01:35:26;;;;;;;8.27;2.45;;;;;;;6.90;nan;96082.31;2065631;28;20034;-65
2024/02/06 01:36:27;;;;;;;12.48;2.85;;;;;;;6.88;nan;96091.00;2065010;28;20479;-65
2024/02/06 01:37:28;;;;;;;7.07;3.47;;;;;;;6.81;nan;96086.00;2065731;28;20038;-64
2024/02/06 01:38:29;;;;;;;6.25;2.53;;;;;;;6.77;nan;96084.44;2064604;28;20406;-64
2024/02/06 01:39:30;;;;;;;9.40;2.40;;;;;;;6.71;nan;96082.03;2065066;28;20038;-64
2024/02/06 01:40:41;;;;;;;15.70;2.67;;;;;;;6.71;nan;96088.91;2065824;28;20057;-64
2024/02/06 01:41:42;;;;;;;7.53;2.85;;;;;;;6.68;nan;96089.03;2065553;28;20049;-64
2024/02/06 01:42:43;;;;;;;9.15;2.42;;;;;;;6.65;nan;96084.78;2065513;28;20454;-65
2024/02/06 01:43:44;;;;;;;6.53;2.53;;;;;;;6.67;nan;96082.19;2065699;28;20026;-64
2024/02/06 01:44:45;;;;;;;9.85;2.30;;;;;;;6.66;nan;96085.66;2064856;28;20046;-64
2024/02/06 01:45:49;;;;;;;10.45;2.72;;;;;;;6.61;nan;96083.22;2065192;28;20042;-64
2024/02/06 01:46:51;;;;;;;10.88;2.67;;;;;;;6.64;nan;96077.97;2056713;28;20046;-64
2024/02/06 01:47:52;;;;;;;9.25;2.50;;;;;;;6.69;nan;96083.81;2048373;29;20073;-64
2024/02/06 01:48:54;;;;;;;6.80;1.98;;;;;;;6.76;nan;96082.75;2049138;28;20043;-65
2024/02/06 01:49:55;;;;;;;4.90;1.73;;;;;;;6.85;nan;96082.44;2065228;28;20077;-64
2024/02/06 01:50:57;;;;;;;8.75;2.58;;;;;;;6.85;nan;96079.03;2056847;28;20038;-64
2024/02/06 01:51:58;;;;;;;8.40;2.55;;;;;;;6.87;nan;96079.84;2056920;28;20423;-64
2024/02/06 01:52:59;;;;;;;8.88;2.40;;;;;;;6.82;nan;96087.72;2065412;28;20068;-64
2024/02/06 01:54:00;;;;;;;10.30;2.25;;;;;;;6.74;nan;96073.38;2056454;28;20066;-64
2024/02/06 01:55:01;;;;;;;6.90;2.45;;;;;;;6.70;nan;96072.59;2056432;28;20404;-62
2024/02/06 01:56:03;;;;;;;6.43;2.38;;;;;;;6.65;nan;96079.63;2065574;28;20049;-64
2024/02/06 01:57:04;;;;;;;6.55;2.20;;;;;;;6.56;nan;96073.03;2056208;28;20054;-64
2024/02/06 01:58:05;;;;;;;13.35;2.72;;;;;;;6.52;nan;96075.72;2048899;28;20043;-64
2024/02/06 01:59:06;;;;;;;8.18;2.45;;;;;;;6.49;nan;96075.81;2049719;29;20058;-64
2024/02/06 02:00:08;;;;;;;7.10;2.83;;;;;;;6.43;nan;96073.44;2058325;28;20415;-64
2024/02/06 02:01:13;;;;;;;10.20;2.92;;;;;;;6.44;nan;96073.38;2058482;28;20042;-65
2024/02/06 02:02:14;;;;;;;10.02;2.80;;;;;;;6.42;nan;96071.75;2043167;29;20047;-64
2024/02/06 02:03:15;;;;;;;7.25;2.28;;;;;;;6.34;nan;96062.50;2050525;28;20047;-64
2024/02/06 02:04:16;;;;;;;7.30;2.80;;;;;;;6.37;nan;96065.00;2050350;28;20062;-64
2024/02/06 02:05:17;;;;;;;5.88;2.42;;;;;;;6.39;nan;96072.69;2050750;28;20510;-64
2024/02/06 02:06:19;;;;;;;7.43;2.83;;;;;;;6.35;nan;96059.03;2058361;28;20035;-64
2024/02/06 02:07:20;;;;;;;10.50;2.47;;;;;;;6.36;nan;96062.44;2057835;28;20058;-64
2024/02/06 02:08:21;;;;;;;7.43;1.90;;;;;;;6.38;nan;96066.66;2050479;28;20487;-64
2024/02/06 02:09:22;;;;;;;6.20;2.03;;;;;;;6.38;nan;96061.50;2058062;28;20043;-65
2024/02/06 02:10:23;;;;;;;7.93;2.63;;;;;;;6.37;nan;96066.72;2067005;28;20491;-65
2024/02/06 02:11:25;;;;;;;7.32;2.08;;;;;;;6.34;nan;96057.34;2066385;28;20057;-64
2024/02/06 02:12:26;;;;;;;8.00;2.13;;;;;;;6.34;nan;96059.94;2066433;28;20050;-64
2024/02/06 02:13:27;;;;;;;6.20;2.00;;;;;;;6.32;nan;96053.97;2066519;28;20042;-64
2024/02/06 02:14:28;;;;;;;7.90;2.45;;;;;;;6.32;nan;96056.53;2066711;28;20053;-64
2024/02/06 02:15:29;;;;;;;6.90;2.08;;;;;;;6.33;nan;96062.53;2066841;28;20058;-64
2024/02/06 02:16:30;;;;;;;6.65;2.40;;;;;;;6.32;nan;96056.53;2050243;29;20043;-64
2024/02/06 02:17:31;;;;;;;6.95;2.35;;;;;;;6.29;nan;96059.22;2050508;28;20472;-64
2024/02/06 02:18:34;;;;;;;9.45;2.47;;;;;;;6.30;nan;96062.63;2067043;28;20395;-64
2024/02/06 02:19:35;;;;;;;6.72;2.00;;;;;;;6.34;nan;96051.34;2066339;28;20050;-64
2024/02/06 02:20:36;;;;;;;6.53;1.98;;;;;;;6.37;nan;96059.00;2066437;28;20050;-64
2024/02/06 02:21:38;;;;;;;7.82;2.10;;;;;;;6.43;nan;96057.97;2066174;28;20090;-64
2024/02/06 02:22:39;;;;;;;6.85;2.40;;;;;;;6.43;nan;96066.53;2066880;28;20034;-64
2024/02/06 02:23:40;;;;;;;7.47;2.33;;;;;;;6.45;nan;96066.50;2066708;28;20050;-64
2024/02/06 02:24:42;;;;;;;6.07;1.98;;;;;;;6.42;nan;96059.69;2066275;28;20418;-64
2024/02/06 02:25:43;;;;;;;5.85;2.20;;;;;;;6.47;nan;96051.81;2066077;28;20087;-64
2024/02/06 02:26:44;;;;;;;5.95;2.20;;;;;;;6.42;nan;96051.13;2057445;28;20054;-64
2024/02/06 02:27:45;;;;;;;7.35;2.10;;;;;;;6.39;nan;96052.91;2057669;28;20058;-64
2024/02/06 02:28:46;;;;;;;7.03;2.30;;;;;;;6.39;nan;96041.75;2066957;28;20050;-64
2024/02/06 02:29:50;;;;;;;5.35;2.55;;;;;;;6.42;nan;96044.22;2066924;28;20054;-64
2024/02/06 02:30:51;;;;;;;7.80;2.40;;;;;;;6.42;nan;96038.22;2058149;28;20046;-64
2024/02/06 02:31:52;;;;;;;12.18;2.25;;;;;;;6.38;nan;96038.28;2042408;29;20044;-64
2024/02/06 02:32:54;;;;;;;6.63;2.10;;;;;;;6.35;nan;96042.72;2050106;28;20054;-64
2024/02/06 02:33:55;;;;;;;6.57;2.03;;;;;;;6.34;nan;96033.28;2050169;29;20043;-64
2024/02/06 02:34:56;;;;;;;6.70;2.22;;;;;;;6.36;nan;96042.69;2050359;28;20439;-64
2024/02/06 02:35:57;;;;;;;11.88;2.60;;;;;;;6.38;nan;96038.28;2058158;28;20034;-64
2024/02/06 02:36:58;;;;;;;11.80;2.47;;;;;;;6.38;nan;96034.88;2058235;28;20049;-64
2024/02/06 02:37:59;;;;;;;5.82;2.00;;;;;;;6.34;nan;96041.03;2066740;28;20050;-64
2024/02/06 02:39:00;;;;;;;7.85;2.05;;;;;;;6.36;nan;96031.50;2066774;28;20061;-64
2024/02/06 02:40:02;;;;;;;6.60;1.92;;;;;;;6.45;nan;96028.66;2066702;28;20454;-64
2024/02/06 02:41:03;;;;;;;7.03;2.13;;;;;;;6.53;nan;96025.84;2066138;28;20057;-64
2024/02/06 02:42:04;;;;;;;12.38;2.92;;;;;;;6.58;nan;96029.97;2066496;28;20077;-64
2024/02/06 02:43:05;;;;;;;7.22;2.20;;;;;;;6.59;nan;96029.06;2066635;28;20471;-64
2024/02/06 02:44:06;;;;;;;6.00;2.15;;;;;;;6.61;nan;96040.19;2066527;28;20054;-64
2024/02/06 02:45:07;;;;;;;9.15;2.40;;;;;;;6.66;nan;96027.16;2067057;28;20395;-64
2024/02/06 02:46:09;;;;;;;9.35;2.70;;;;;;;6.66;nan;96024.56;2066874;28;20043;-64
2024/02/06 02:47:10;;;;;;;8.50;2.22;;;;;;;6.66;nan;96029.72;2065863;28;20058;-64
2024/02/06 02:48:12;;;;;;;10.45;2.25;;;;;;;6.65;nan;96025.44;2066643;28;20046;-64
2024/02/06 02:49:13;;;;;;;10.23;2.20;;;;;;;6.70;nan;96023.56;2066818;28;20045;-65
2024/02/06 02:50:14;;;;;;;11.75;2.78;;;;;;;6.81;nan;96029.22;2066661;28;20050;-65
2024/02/06 02:51:15;;;;;;;7.90;3.08;;;;;;;6.83;nan;96026.59;2066751;28;20037;-64
2024/02/06 02:52:16;;;;;;;14.00;2.13;;;;;;;6.89;nan;96028.16;2066701;28;20049;-64
2024/02/06 02:53:17;;;;;;;8.70;2.40;;;;;;;6.92;nan;96020.28;2066650;28;20418;-64
2024/02/06 02:54:19;;;;;;;6.57;2.00;;;;;;;6.88;nan;96024.72;2066702;28;20034;-64
2024/02/06 02:55:20;;;;;;;10.20;2.20;;;;;;;6.88;nan;96029.06;2065788;28;20046;-64
2024/02/06 02:56:22;;;;;;;9.75;2.90;;;;;;;6.84;nan;96036.91;2066614;28;20035;-64
2024/02/06 02:57:23;;;;;;;5.05;1.90;;;;;;;6.83;nan;96036.94;2057537;28;20411;-64
2024/02/06 02:58:24;;;;;;;9.50;2.13;;;;;;;6.88;nan;96031.63;2057971;28;20023;-64
2024/02/06 02:59:25;;;;;;;7.47;2.45;;;;;;;6.86;nan;96023.91;2066793;28;20030;-64
2024/02/06 03:00:26;;;;;;;8.98;1.95;;;;;;;6.89;nan;96023.81;2065355;28;20054;-64
2024/02/06 03:01:27;;;;;;;4.13;1.33;;;;;;;7.00;nan;96026.91;2066155;28;20050;-64
2024/02/06 03:02:28;;;;;;;5.32;2.40;;;;;;;7.11;nan;96030.88;2066832;28;20045;-64
2024/02/06 03:03:29;;;;;;;10.70;2.30;;;;;;;7.22;nan;96034.78;2066474;28;20030;-64
2024/02/06 03:04:30;;;;;;;11.85;1.95;;;;;;;7.26;nan;96033.78;2066109;28;20042;-64
2024/02/06 03:05:32;;;;;;;8.02;1.95;;;;;;;7.36;nan;96021.41;2065972;28;20050;-64
2024/02/06 03:06:33;;;;;;;7.78;1.60;;;;;;;7.46;nan;96043.47;2066338;28;20047;-64
2024/02/06 03:07:34;;;;;;;4.50;1.95;;;;;;;7.52;nan;96034.66;2065564;28;20490;-64
2024/02/06 03:08:36;;;;;;;2.47;1.25;;;;;;;7.54;nan;96029.41;2066604;28;20046;-64
2024/02/06 03:09:37;;;;;;;13.63;2.33;;;;;;;7.61;nan;96038.66;2057896;28;20042;-64
2024/02/06 03:10:38;;;;;;;7.47;2.30;;;;;;;7.69;nan;96041.81;2057230;28;20042;-64
2024/02/06 03:11:39;;;;;;;8.15;2.30;;;;;;;7.71;nan;96021.94;2066020;28;20050;-64
2024/02/06 03:12:40;;;;;;;5.60;1.88;;;;;;;7.79;nan;96035.41;2066614;28;20486;-64
2024/02/06 03:13:42;;;;;;;6.32;2.40;;;;;;;7.79;nan;96044.91;2065591;28;20065;-64
2024/02/06 03:14:43;;;;;;;4.75;1.77;;;;;;;7.83;nan;96026.66;2065970;28;20046;-64
2024/02/06 03:15:44;;;;;;;7.13;1.88;;;;;;;7.78;nan;96033.75;2066649;28;20038;-64
2024/02/06 03:16:45;;;;;;;7.78;2.40;;;;;;;7.74;nan;96037.31;2066027;28;20380;-64
2024/02/06 03:17:51;;;;;;;5.82;1.88;;;;;;;7.68;nan;96032.38;2066544;28;20046;-64
2024/02/06 03:18:52;;;;;;;7.68;1.92;;;;;;;7.71;nan;96024.50;2065548;28;20398;-64
2024/02/06 03:19:53;;;;;;;11.52;2.72;;;;;;;7.71;nan;96027.94;2066135;28;20054;-65
2024/02/06 03:20:54;;;;;;;4.25;1.58;;;;;;;7.73;nan;96025.31;2066435;28;20470;-64
2024/02/06 03:21:56;;;;;;;8.65;1.70;;;;;;;7.74;nan;96037.31;2066628;28;20042;-64
2024/02/06 03:22:57;;;;;;;14.18;3.05;;;;;;;7.71;nan;96021.94;2065634;28;20050;-64
2024/02/06 03:23:58;;;;;;;4.47;2.03;;;;;;;7.69;nan;96029.72;2066480;28;20033;-64
2024/02/06 03:25:00;;;;;;;5.35;2.10;;;;;;;7.66;nan;96031.59;2066343;28;20050;-65
2024/02/06 03:26:01;;;;;;;7.43;2.00;;;;;;;7.62;nan;96028.28;2066376;28;20046;-64
2024/02/06 03:27:03;;;;;;;5.45;2.08;;;;;;;7.56;nan;96028.47;2065255;28;20069;-64
2024/02/06 03:28:04;;;;;;;6.57;2.47;;;;;;;7.52;nan;96026.91;2065612;28;20050;-64
2024/02/06 03:29:06;;;;;;;5.88;2.72;;;;;;;7.49;nan;96029.59;2066417;28;20049;-64
2024/02/06 03:30:08;;;;;;;8.40;2.17;;;;;;;7.54;nan;96034.56;2066389;28;20478;-64
2024/02/06 03:31:09;;;;;;;8.65;2.88;;;;;;;7.50;nan;96042.44;2056988;28;20046;-64
2024/02/06 03:32:10;;;;;;;11.18;2.58;;;;;;;7.53;nan;96033.75;2041752;29;20034;-65
2024/02/06 03:33:11;;;;;;;10.35;2.45;;;;;;;7.55;nan;96041.47;2049038;28;20099;-64
2024/02/06 03:34:13;;;;;;;9.48;2.80;;;;;;;7.49;nan;96032.19;2066440;28;20485;-64
2024/02/06 03:35:14;;;;;;;5.25;2.40;;;;;;;7.46;nan;96045.22;2066306;28;20050;-64
2024/02/06 03:36:15;;;;;;;8.45;2.50;;;;;;;7.43;nan;96032.38;2066452;28;20034;-64
2024/02/06 03:37:17;;;;;;;6.60;2.47;;;;;;;7.44;nan;96040.06;2065985;28;20518;-64
2024/02/06 03:38:19;;;;;;;8.00;2.00;;;;;;;7.44;nan;96034.91;2066242;28;20046;-64
2024/02/06 03:39:21;;;;;;;7.32;2.28;;;;;;;7.42;nan;96038.44;2066331;28;20042;-64
2024/02/06 03:40:22;;;;;;;5.63;2.08;;;;;;;7.35;nan;96037.81;2065972;28;20038;-64
2024/02/06 03:41:23;;;;;;;7.00;2.15;;;;;;;7.37;nan;96035.16;2065778;28;20077;-65
2024/02/06 03:42:24;;;;;;;5.78;2.15;;;;;;;7.42;nan;96043.59;2066411;28;20026;-65
2024/02/06 03:43:25;;;;;;;10.93;3.53;;;;;;;7.40;nan;96035.06;2066521;28;20033;-65
2024/02/06 03:44:26;;;;;;;7.38;2.05;;;;;;;7.37;nan;96046.34;2066359;28;20045;-65
2024/02/06 03:45:28;;;;;;;6.30;2.10;;;;;;;7.31;nan;96045.72;2066521;28;20038;-64
2024/02/06 03:46:29;;;;;;;8.13;2.33;;;;;;;7.22;nan;96044.28;2066262;28;20057;-65
2024/02/06 03:47:30;;;;;;;7.70;2.50;;;;;;;7.16;nan;96047.88;2066756;28;20049;-64
2024/02/06 03:48:34;;;;;;;9.75;2.20;;;;;;;7.10;nan;96048.09;2066333;28;20053;-65
2024/02/06 03:49:35;;;;;;;8.82;2.45;;;;;;;7.13;nan;96039.41;2067106;28;20045;-65
2024/02/06 03:50:37;;;;;;;6.22;1.80;;;;;;;7.14;nan;96038.53;2066324;28;20050;-65
2024/02/06 03:51:38;;;;;;;6.35;1.88;;;;;;;7.13;nan;96044.56;2065580;28;20061;-65
2024/02/06 03:52:39;;;;;;;5.05;2.22;;;;;;;7.13;nan;96034.25;2065944;28;20054;-65
2024/02/06 03:53:40;;;;;;;8.52;1.92;;;;;;;7.16;nan;96041.88;2066396;28;20479;-64
2024/02/06 03:54:41;;;;;;;7.82;2.83;;;;;;;7.17;nan;96039.28;2066236;28;20053;-64
2024/02/06 03:55:42;;;;;;;6.53;2.53;;;;;;;7.15;nan;96035.88;2065974;28;20379;-65
2024/02/06 03:56:43;;;;;;;5.95;2.38;;;;;;;7.15;nan;96038.47;2066416;28;20039;-64
2024/02/06 03:57:44;;;;;;;7.53;2.63;;;;;;;7.11;nan;96042.06;2065637;28;20077;-64
2024/02/06 03:58:46;;;;;;;4.80;1.98;;;;;;;7.08;nan;96031.81;2066413;28;20031;-64
2024/02/06 03:59:47;;;;;;;6.88;2.42;;;;;;;7.03;nan;96034.56;2066200;28;20046;-64
2024/02/06 04:00:50;;;;;;;8.52;2.38;;;;;;;7.07;nan;96038.72;2066075;28;20483;-64
2024/02/06 04:01:51;;;;;;;5.47;2.00;;;;;;;7.09;nan;96033.50;2066148;28;20042;-64
2024/02/06 04:02:52;;;;;;;9.68;2.58;;;;;;;7.10;nan;96042.94;2066092;28;20053;-64
2024/02/06 04:03:53;;;;;;;5.65;2.10;;;;;;;7.06;nan;96034.47;2056744;28;20431;-64
2024/02/06 04:04:54;;;;;;;8.30;2.25;;;;;;;7.00;nan;96045.00;2057485;28;20046;-64
2024/02/06 04:05:55;;;;;;;5.85;1.95;;;;;;;7.00;nan;96041.53;2066293;28;20053;-64
2024/02/06 04:06:56;;;;;;;7.07;1.80;;;;;;;6.99;nan;96039.88;2065624;28;20054;-64
2024/02/06 04:07:57;;;;;;;3.92;1.90;;;;;;;6.98;nan;96039.03;2066067;28;20042;-64
2024/02/06 04:08:58;;;;;;;7.80;2.40;;;;;;;7.04;nan;96040.56;2066146;28;20402;-64
2024/02/06 04:10:00;;;;;;;9.23;2.78;;;;;;;7.02;nan;96037.19;2065995;28;20046;-64
2024/02/06 04:11:01;;;;;;;6.80;2.33;;;;;;;6.97;nan;96039.91;2066155;28;20057;-64
2024/02/06 04:12:02;;;;;;;7.72;3.60;;;;;;;6.99;nan;96032.13;2066107;28;20046;-64
2024/02/06 04:13:06;;;;;;;8.13;2.72;;;;;;;6.94;nan;96034.84;2065171;28;20042;-63
2024/02/06 04:14:07;;;;;;;6.97;2.05;;;;;;;6.87;nan;96037.66;2066124;28;20049;-64
2024/02/06 04:15:09;;;;;;;7.97;2.45;;;;;;;6.87;nan;96035.97;2065983;28;20046;-64
2024/02/06 04:16:10;;;;;;;7.68;2.13;;;;;;;6.81;nan;96031.81;2065991;28;20042;-64
2024/02/06 04:17:11;;;;;;;8.30;2.45;;;;;;;6.80;nan;96032.72;2065889;28;20046;-64
2024/02/06 04:18:12;;;;;;;6.88;2.53;;;;;;;6.76;nan;96035.44;2065089;28;20049;-64
2024/02/06 04:19:14;;;;;;;6.88;2.55;;;;;;;6.72;nan;96042.44;2066010;28;20026;-64
2024/02/06 04:20:15;;;;;;;6.03;2.28;;;;;;;6.67;nan;96040.88;2065067;28;20057;-65
2024/02/06 04:21:16;;;;;;;6.68;1.83;;;;;;;6.66;nan;96042.63;2056679;28;20487;-64
2024/02/06 04:22:17;;;;;;;10.00;2.40;;;;;;;6.66;nan;96045.22;2057645;28;20546;-64
2024/02/06 04:23:19;;;;;;;5.53;2.35;;;;;;;6.57;nan;96050.63;2066265;28;20078;-64
2024/02/06 04:24:20;;;;;;;6.72;2.25;;;;;;;6.54;nan;96043.84;2065415;28;20410;-64
2024/02/06 04:25:21;;;;;;;5.65;2.65;;;;;;;6.53;nan;96049.91;2065957;28;20049;-64
2024/02/06 04:26:22;;;;;;;8.50;2.55;;;;;;;6.51;nan;96054.25;2065679;28;20046;-64
2024/02/06 04:27:23;;;;;;;5.20;2.35;;;;;;;6.45;nan;96061.34;2065937;28;20120;-64
2024/02/06 04:28:24;;;;;;;8.82;3.22;;;;;;;6.42;nan;96061.44;2065721;28;20050;-64
2024/02/06 04:29:26;;;;;;;11.98;3.08;;;;;;;6.40;nan;96057.16;2065863;28;20490;-64
2024/02/06 04:30:27;;;;;;;5.72;2.30;;;;;;;6.34;nan;96056.50;2056820;28;20058;-64
2024/02/06 04:31:28;;;;;;;8.13;2.72;;;;;;;6.26;nan;96069.63;2057505;28;20451;-64
2024/02/06 04:32:29;;;;;;;7.05;2.00;;;;;;;6.24;nan;96057.66;2065722;28;20039;-64
2024/02/06 04:33:30;;;;;;;8.55;2.60;;;;;;;6.20;nan;96062.03;2056775;28;20054;-64
2024/02/06 04:34:33;;;;;;;11.35;3.63;;;;;;;6.15;nan;96061.34;2057367;28;20058;-64
2024/02/06 04:35:35;;;;;;;10.68;2.88;;;;;;;6.09;nan;96053.78;2065912;28;20053;-64
2024/02/06 04:36:36;;;;;;;10.07;2.40;;;;;;;6.06;nan;96053.88;2065316;28;20057;-64
2024/02/06 04:37:37;;;;;;;8.25;2.53;;;;;;;6.01;nan;96066.03;2065527;28;20054;-64
2024/02/06 04:38:39;;;;;;;9.02;2.92;;;;;;;5.94;nan;96063.66;2065972;28;20453;-64
2024/02/06 04:39:40;;;;;;;9.10;2.92;;;;;;;5.89;nan;96062.06;2065807;28;20042;-64
2024/02/06 04:40:41;;;;;;;10.48;2.97;;;;;;;5.81;nan;96061.41;2065953;28;20403;-64
2024/02/06 04:41:42;;;;;;;10.85;3.08;;;;;;;5.72;nan;96062.50;2065936;28;20419;-64
2024/02/06 04:42:43;;;;;;;12.68;3.95;;;;;;;5.63;nan;96060.19;2065749;28;20049;-64
2024/02/06 04:43:44;;;;;;;9.68;3.30;;;;;;;5.56;nan;96062.09;2065872;28;20046;-64
2024/02/06 04:44:45;;;;;;;9.15;3.35;;;;;;;5.49;nan;96063.13;2066020;28;20371;-64
2024/02/06 04:45:46;;;;;;;8.13;3.17;;;;;;;5.41;nan;96065.06;2065778;28;20046;-64
2024/02/06 04:46:47;;;;;;;9.50;3.30;;;;;;;5.32;nan;96063.56;2065535;28;20053;-64
2024/02/06 04:47:48;;;;;;;10.45;3.10;;;;;;;5.24;nan;96062.91;2065861;28;20058;-64
2024/02/06 04:48:49;;;;;;;12.45;3.97;;;;;;;5.16;nan;96064.81;2065920;28;20073;-64
2024/02/06 04:49:51;;;;;;;8.25;3.20;;;;;;;5.07;nan;96061.59;2065379;28;20053;-63
2024/02/06 04:50:52;;;;;;;7.75;3.40;;;;;;;5.05;nan;96065.94;2065398;28;20054;-64
2024/02/06 04:51:53;;;;;;;14.95;3.50;;;;;;;4.99;nan;96063.50;2066057;28;20424;-64
2024/02/06 04:52:58;;;;;;;9.77;3.70;;;;;;;4.93;nan;96061.09;2065173;28;20054;-64
2024/02/06 04:53:59;;;;;;;9.35;3.40;;;;;;;4.86;nan;96062.09;2065151;28;20058;-64
2024/02/06 04:55:01;;;;;;;7.07;3.65;;;;;;;4.78;nan;96059.69;2065907;28;20041;-64
2024/02/06 04:56:03;;;;;;;14.32;3.60;;;;;;;4.73;nan;96063.28;2064817;28;20057;-63
2024/02/06 04:57:04;;;;;;;12.48;3.78;;;;;;;4.63;nan;96057.50;2064723;28;20054;-63
2024/02/06 04:58:05;;;;;;;13.15;3.40;;;;;;;4.54;nan;96053.41;2064747;28;20057;-64